Time;durP1;ratioP1;P1;durP2;ratioP2;P2;SDS_P1;SDS_P2;PMS_P1;PMS_P2;Temp;Humidity;BMP_temperature;BMP_pressure;BME280_temperature;BME280_humidity;BME280_pressure;Samples;Min_cycle;Max_cycle;Signal;HPM_P1;HPM_P2
2022/10/11 00:00:53;;;;;;;4.20;3.80;;;;;;;18.66;52.30;93787.72;5019266;28;20405;-90
2022/10/11 00:03:19;;;;;;;5.57;3.75;;;;;;;18.64;52.57;93784.75;5023466;28;20045;-90
2022/10/11 00:05:45;;;;;;;4.35;3.85;;;;;;;18.65;52.56;93797.94;5039432;28;20495;-90
2022/10/11 00:08:11;;;;;;;3.83;3.25;;;;;;;18.64;52.46;93795.72;5019444;28;20044;-90
2022/10/11 00:10:36;;;;;;;4.20;3.60;;;;;;;18.67;52.15;93794.69;5036303;28;20475;-90
2022/10/11 00:13:01;;;;;;;4.95;4.00;;;;;;;18.65;52.43;93797.19;5019730;28;20059;-91
2022/10/11 00:15:27;;;;;;;4.85;3.92;;;;;;;18.66;52.36;93804.16;5034664;28;20519;-90
2022/10/11 00:17:52;;;;;;;4.10;3.40;;;;;;;18.65;52.34;93792.47;5035985;28;20037;-90
2022/10/11 00:20:18;;;;;;;4.40;3.63;;;;;;;18.65;52.39;93791.72;5018859;28;20052;-90
2022/10/11 00:22:43;;;;;;;4.57;3.58;;;;;;;18.67;52.31;93800.94;5035705;28;20044;-90
2022/10/11 00:25:09;;;;;;;4.25;3.25;;;;;;;18.64;52.33;93804.66;5018329;28;20078;-90
2022/10/11 00:27:35;;;;;;;4.75;4.05;;;;;;;18.63;52.29;93805.16;5034697;28;20087;-90
2022/10/11 00:30:00;;;;;;;3.90;3.55;;;;;;;18.63;52.35;93810.66;5035351;28;20491;-90
2022/10/11 00:32:26;;;;;;;4.80;3.40;;;;;;;18.65;52.34;93817.09;5018362;28;20040;-90
2022/10/11 00:34:51;;;;;;;4.70;3.50;;;;;;;18.61;52.24;93802.97;5035453;28;20471;-90
2022/10/11 00:37:17;;;;;;;4.10;3.17;;;;;;;18.65;52.49;93814.38;5034572;28;20372;-90
2022/10/11 00:39:42;;;;;;;4.63;3.20;;;;;;;18.64;52.41;93812.13;5018421;28;20033;-90
2022/10/11 00:42:11;;;;;;;4.18;2.92;;;;;;;18.63;52.47;93807.91;5018262;28;20048;-90
2022/10/11 00:44:39;;;;;;;3.92;3.53;;;;;;;18.63;52.28;93811.38;5035109;28;20119;-90
2022/10/11 00:47:06;;;;;;;4.05;3.20;;;;;;;18.64;52.14;93812.88;5014577;28;20041;-89
2022/10/11 00:49:36;;;;;;;3.60;3.10;;;;;;;18.62;52.58;93815.38;4999092;28;20056;-90
2022/10/11 00:52:30;;;;;;;5.75;3.72;;;;;;;18.63;52.28;93807.91;5028715;28;20094;-90
2022/10/11 00:54:56;;;;;;;3.80;3.22;;;;;;;18.62;52.27;93809.19;5019844;28;20044;-90
2022/10/11 00:57:22;;;;;;;3.88;3.17;;;;;;;18.63;52.43;93803.16;5034789;28;20462;-90
2022/10/11 00:59:50;;;;;;;3.30;2.90;;;;;;;18.60;52.35;93804.19;5018479;28;20028;-91
2022/10/11 01:02:15;;;;;;;3.72;3.00;;;;;;;18.62;52.55;93814.66;5017571;28;20040;-90
2022/10/11 01:04:41;;;;;;;3.83;3.00;;;;;;;18.63;52.27;93813.38;5034824;28;20064;-89
2022/10/11 01:07:07;;;;;;;3.03;2.72;;;;;;;18.63;52.32;93810.66;5034703;28;20043;-90
2022/10/11 01:09:32;;;;;;;4.25;3.13;;;;;;;18.62;52.40;93809.91;5038107;28;20035;-90
2022/10/11 01:11:58;;;;;;;3.15;2.53;;;;;;;18.63;52.29;93816.13;5048865;28;20032;-90
2022/10/11 01:14:35;;;;;;;3.17;2.65;;;;;;;18.62;52.42;93811.91;5017325;28;20059;-90
2022/10/11 01:17:22;;;;;;;3.90;3.03;;;;;;;18.62;52.36;93815.38;5020464;28;20064;-90
2022/10/11 01:20:23;;;;;;;3.20;2.90;;;;;;;18.63;52.26;93813.38;5031621;28;20128;-90
2022/10/11 01:23:03;;;;;;;2.72;2.50;;;;;;;18.61;52.57;93818.63;5059940;28;20041;-90
2022/10/11 01:25:59;;;;;;;2.95;2.55;;;;;;;18.61;52.19;93813.91;5033627;28;20037;-90
2022/10/11 01:28:54;;;;;;;3.13;2.72;;;;;;;18.60;52.33;93820.63;5067511;28;20037;-90
2022/10/11 01:31:24;;;;;;;3.92;2.72;;;;;;;18.62;52.19;93825.59;5036311;28;20094;-90
2022/10/11 01:34:13;;;;;;;3.22;2.55;;;;;;;18.60;51.96;93826.09;5034375;28;20518;-90
2022/10/11 01:36:45;;;;;;;2.92;2.50;;;;;;;18.60;52.38;93820.63;5019412;28;20525;-90
2022/10/11 01:39:15;;;;;;;3.20;2.58;;;;;;;18.59;52.40;93819.13;5033003;28;20055;-90
2022/10/11 01:41:48;;;;;;;2.90;2.65;;;;;;;18.61;52.24;93827.59;5034265;28;20082;-90
2022/10/11 01:44:14;;;;;;;4.65;2.50;;;;;;;18.60;52.07;93825.38;5033510;28;20033;-90
2022/10/11 01:46:39;;;;;;;3.22;2.70;;;;;;;18.60;52.31;93825.38;5017414;28;20396;-90
2022/10/11 01:49:05;;;;;;;5.53;2.47;;;;;;;18.61;52.25;93829.59;5017204;28;20112;-90
2022/10/11 01:51:42;;;;;;;4.45;2.55;;;;;;;18.59;52.23;93819.13;5016915;28;20392;-90
2022/10/11 01:54:10;;;;;;;3.05;2.42;;;;;;;18.60;52.34;93828.84;4998792;28;20044;-90
2022/10/11 01:57:05;;;;;;;3.00;2.55;;;;;;;18.59;52.03;93830.09;5030934;28;20037;-90
2022/10/11 01:59:52;;;;;;;3.15;2.50;;;;;;;18.58;52.09;93831.31;5034780;28;20086;-90
2022/10/11 02:02:20;;;;;;;3.33;2.65;;;;;;;18.59;52.14;93832.84;5034780;28;20449;-90
2022/10/11 02:04:47;;;;;;;2.92;2.22;;;;;;;18.58;52.48;93833.31;5080688;28;20051;-90
2022/10/11 02:07:23;;;;;;;4.00;2.08;;;;;;;18.59;52.26;93840.28;5064903;28;20308;-90
2022/10/11 02:09:55;;;;;;;3.38;2.42;;;;;;;18.59;52.46;93832.06;5033994;28;20395;-90
2022/10/11 02:12:26;;;;;;;4.32;2.50;;;;;;;18.59;52.64;93832.06;5017133;28;20037;-89
2022/10/11 02:14:52;;;;;;;2.72;2.13;;;;;;;18.64;52.09;93836.78;5034214;28;20029;-91
2022/10/11 02:17:20;;;;;;;2.92;2.60;;;;;;;18.59;52.24;93832.06;5016508;28;20048;-90
2022/10/11 02:19:49;;;;;;;3.38;2.45;;;;;;;18.60;52.35;93844.53;5017184;28;20079;-90
2022/10/11 02:22:19;;;;;;;3.00;2.25;;;;;;;18.59;52.00;93838.31;5016123;28;20039;-90
2022/10/11 02:24:45;;;;;;;3.17;2.42;;;;;;;18.61;52.25;93835.06;5017151;28;20090;-90
2022/10/11 02:27:11;;;;;;;3.58;2.35;;;;;;;18.59;52.63;93840.28;5032398;28;20051;-90
2022/10/11 02:29:37;;;;;;;3.10;1.92;;;;;;;18.60;52.44;93844.53;4972927;28;20034;-90
2022/10/11 02:32:03;;;;;;;2.97;2.28;;;;;;;18.60;51.83;93852.75;4972695;28;20057;-90
2022/10/11 02:34:34;;;;;;;2.08;1.88;;;;;;;18.57;52.29;93846.25;4957442;28;20682;-90
2022/10/11 02:37:10;;;;;;;2.35;1.90;;;;;;;18.60;52.15;93853.50;4972973;28;20070;-90
2022/10/11 02:39:39;;;;;;;2.33;2.03;;;;;;;18.59;52.11;93853.97;5005039;28;20054;-89
2022/10/11 02:42:09;;;;;;;3.72;2.20;;;;;;;18.57;52.19;93848.97;4972446;28;20512;-90
2022/10/11 02:44:39;;;;;;;2.50;2.00;;;;;;;18.58;52.19;93855.22;4973666;28;20140;-90
2022/10/11 02:47:04;;;;;;;3.10;2.07;;;;;;;18.59;52.15;93860.22;4956829;28;20107;-90
2022/10/11 02:49:30;;;;;;;3.63;2.20;;;;;;;18.58;51.93;93850.47;4973257;28;20452;-90
2022/10/11 02:51:55;;;;;;;2.47;1.92;;;;;;;18.58;52.41;93847.75;4974491;28;20483;-90
2022/10/11 02:54:22;;;;;;;2.58;1.90;;;;;;;18.57;52.18;93854.47;4960551;28;20046;-90
2022/10/11 02:56:47;;;;;;;2.10;1.90;;;;;;;18.57;52.09;93850.97;4960741;28;20097;-90
2022/10/11 02:59:13;;;;;;;2.75;2.13;;;;;;;18.58;52.09;93847.75;4956465;28;20046;-90
2022/10/11 03:01:38;;;;;;;3.58;2.35;;;;;;;18.57;52.14;93851.72;5012939;28;20112;-90
2022/10/11 03:04:04;;;;;;;2.47;2.22;;;;;;;18.58;52.23;93847.75;5040101;28;20063;-90
2022/10/11 03:06:29;;;;;;;2.25;2.05;;;;;;;18.57;52.10;93853.72;5040126;28;20534;-90
2022/10/11 03:08:54;;;;;;;2.88;2.05;;;;;;;18.56;52.26;93847.50;5025218;28;20036;-90
2022/10/11 03:11:20;;;;;;;2.58;1.90;;;;;;;18.60;51.84;93856.22;5035499;28;20045;-91
2022/10/11 03:13:45;;;;;;;2.53;1.90;;;;;;;18.59;51.96;93856.69;5020514;28;20036;-90
2022/10/11 03:16:11;;;;;;;2.50;2.03;;;;;;;18.58;52.56;93860.69;5020107;28;20420;-90
2022/10/11 03:18:36;;;;;;;2.53;1.90;;;;;;;18.57;52.05;93859.94;5021100;28;20465;-90
2022/10/11 03:21:02;;;;;;;2.22;1.73;;;;;;;18.57;52.17;93867.41;5020109;28;20103;-90
2022/10/11 03:23:27;;;;;;;2.67;1.90;;;;;;;18.58;52.03;93860.69;5036593;28;20532;-90
2022/10/11 03:25:53;;;;;;;2.47;1.75;;;;;;;18.58;52.15;93858.69;5020631;28;20044;-90
2022/10/11 03:28:18;;;;;;;2.33;1.70;;;;;;;18.55;51.73;93859.69;5019262;28;20029;-90
2022/10/11 03:30:48;;;;;;;3.35;1.92;;;;;;;18.55;52.23;93865.16;5020099;28;20036;-90
2022/10/11 03:33:14;;;;;;;2.40;1.80;;;;;;;18.56;52.30;93855.69;5020409;28;20063;-90
2022/10/11 03:35:39;;;;;;;2.33;1.70;;;;;;;18.60;52.04;93850.00;5036735;28;20281;-90
2022/10/11 03:38:05;;;;;;;2.75;2.13;;;;;;;18.58;52.15;93861.44;5019741;28;20048;-92
2022/10/11 03:40:31;;;;;;;2.78;1.90;;;;;;;18.59;52.07;93857.47;5036109;28;20115;-91
2022/10/11 03:42:56;;;;;;;4.38;2.10;;;;;;;18.59;52.28;93871.16;5036843;28;20044;-92
2022/10/11 03:45:22;;;;;;;4.53;1.98;;;;;;;18.58;52.16;93858.69;5019643;28;20029;-91
2022/10/11 03:47:47;;;;;;;2.33;1.63;;;;;;;18.62;51.96;93869.41;5036656;28;20039;-92
2022/10/11 03:50:13;;;;;;;2.42;1.85;;;;;;;18.61;52.08;93859.72;5019169;28;20045;-90
2022/10/11 03:52:38;;;;;;;2.85;1.60;;;;;;;18.61;51.93;93863.19;5019545;28;20445;-90
2022/10/11 03:55:05;;;;;;;3.03;1.40;;;;;;;18.61;51.90;93856.97;5018914;28;20492;-90
2022/10/11 03:57:30;;;;;;;2.03;1.70;;;;;;;18.60;52.00;93860.97;5036455;28;20516;-91
2022/10/11 03:59:56;;;;;;;1.67;1.48;;;;;;;18.59;51.79;93868.44;5019102;28;20048;-91
2022/10/11 04:02:22;;;;;;;2.22;1.58;;;;;;;18.59;52.14;93860.22;5018229;28;20036;-91
2022/10/11 04:04:47;;;;;;;3.47;2.50;;;;;;;18.60;51.55;93869.91;5037113;28;20041;-90
2022/10/11 04:07:13;;;;;;;10.68;3.63;;;;;;;18.50;51.44;93872.13;5028749;28;20036;-90
2022/10/11 04:09:38;;;;;;;9.23;4.32;;;;;;;18.43;51.53;93875.38;5020110;28;20124;-90
2022/10/11 04:12:04;;;;;;;10.80;4.22;;;;;;;18.47;51.01;93878.59;5016443;28;20045;-89
2022/10/11 04:14:29;;;;;;;11.30;4.68;;;;;;;18.35;50.92;93879.88;5018526;28;20041;-89
2022/10/11 04:16:54;;;;;;;17.48;5.47;;;;;;;18.26;50.20;93879.38;5025808;28;20614;-89
2022/10/11 04:19:20;;;;;;;10.93;5.15;;;;;;;18.29;50.22;93872.91;5018714;28;20404;-90
2022/10/11 04:21:45;;;;;;;12.15;5.10;;;;;;;18.30;50.57;93866.19;5022626;28;20047;-87
2022/10/11 04:24:11;;;;;;;17.38;5.95;;;;;;;18.32;50.07;93869.16;5034552;28;20044;-91
2022/10/11 04:26:37;;;;;;;13.05;5.50;;;;;;;18.37;50.17;93871.16;5036309;28;20453;-88
2022/10/11 04:29:03;;;;;;;17.15;5.13;;;;;;;18.35;50.39;93879.88;5032982;28;20033;-91
2022/10/11 04:31:29;;;;;;;38.13;23.23;;;;;;;18.38;50.46;93878.13;5018303;28;20048;-90
2022/10/11 04:33:56;;;;;;;43.53;31.13;;;;;;;18.40;50.90;93879.09;5005858;28;20045;-88
2022/10/11 04:36:21;;;;;;;126.43;46.90;;;;;;;18.42;51.00;93893.03;5025451;28;20032;-92
2022/10/11 04:38:47;;;;;;;20.60;8.90;;;;;;;18.45;50.64;93883.84;5020435;28;20052;-92
2022/10/11 04:41:12;;;;;;;14.00;8.38;;;;;;;18.49;50.75;93884.31;5033101;28;20118;-91
2022/10/11 04:43:38;;;;;;;26.92;13.43;;;;;;;18.51;51.18;93889.31;5015174;28;20037;-90
2022/10/11 04:46:04;;;;;;;25.55;10.48;;;;;;;18.53;51.16;93883.34;5032792;28;20041;-86
2022/10/11 04:48:40;;;;;;;34.50;12.00;;;;;;;18.53;51.29;93895.03;4992817;28;20056;-90
2022/10/11 04:51:06;;;;;;;50.22;23.80;;;;;;;18.52;51.30;93884.56;5012248;28;20044;-87
2022/10/11 04:53:32;;;;;;;31.67;16.17;;;;;;;18.56;51.44;93887.81;5058311;28;20114;-86
2022/10/11 04:56:03;;;;;;;37.13;17.05;;;;;;;18.54;51.13;93885.56;5052803;28;20549;-87
2022/10/11 04:58:29;;;;;;;64.38;27.75;;;;;;;18.54;51.42;93887.56;5007655;28;20049;-88
2022/10/11 05:00:54;;;;;;;65.30;32.08;;;;;;;18.57;51.61;93890.06;5033591;28;20036;-85
2022/10/11 05:03:20;;;;;;;93.97;44.75;;;;;;;18.59;51.32;93890.34;5015877;28;20526;-86
2022/10/11 05:05:45;;;;;;;81.85;45.78;;;;;;;18.58;51.23;93894.28;5037812;28;20068;-89
2022/10/11 05:08:11;;;;;;;134.80;55.65;;;;;;;18.56;51.35;93896.78;5031342;28;20048;-88
2022/10/11 05:10:36;;;;;;;172.35;67.82;;;;;;;18.58;50.96;93888.06;5016207;28;20086;-88
2022/10/11 05:13:02;;;;;;;142.82;62.15;;;;;;;18.57;51.45;93892.78;5014084;28;20040;-89
2022/10/11 05:15:28;;;;;;;122.40;56.45;;;;;;;18.56;51.54;93890.56;5027661;28;20060;-89
2022/10/11 05:17:53;;;;;;;111.43;54.58;;;;;;;18.57;51.32;93890.06;5023044;28;20044;-89
2022/10/11 05:20:19;;;;;;;101.22;46.42;;;;;;;18.58;51.43;93883.34;5016733;28;20070;-89
2022/10/11 05:22:44;;;;;;;92.57;47.05;;;;;;;18.59;51.32;93895.81;5024748;28;20036;-90
2022/10/11 05:25:11;;;;;;;103.32;48.67;;;;;;;18.60;51.35;93889.09;5010425;28;20029;-89
2022/10/11 05:27:37;;;;;;;97.38;46.80;;;;;;;18.60;51.25;93897.31;5022286;28;20037;-89
2022/10/11 05:30:04;;;;;;;103.80;49.10;;;;;;;18.62;51.09;93894.06;5021248;28;20043;-89
2022/10/11 05:32:30;;;;;;;87.07;35.22;;;;;;;18.53;50.74;93889.56;5023086;28;20467;-91
2022/10/11 05:34:55;;;;;;;52.15;22.48;;;;;;;18.48;49.84;93891.06;5050499;28;20054;-90
2022/10/11 05:37:21;;;;;;;31.30;16.23;;;;;;;18.48;49.64;93896.53;5034769;28;20532;-90
2022/10/11 05:39:46;;;;;;;26.05;12.13;;;;;;;18.40;49.79;93894.81;5012420;28;20547;-88
2022/10/11 05:42:12;;;;;;;25.75;11.90;;;;;;;18.34;49.97;93905.00;5033451;28;20043;-88
2022/10/11 05:44:40;;;;;;;31.10;13.80;;;;;;;18.34;50.60;93888.59;5026006;28;20094;-87
2022/10/11 05:47:05;;;;;;;57.05;21.67;;;;;;;18.35;50.89;93909.22;5017139;28;20037;-87
2022/10/11 05:49:31;;;;;;;57.97;28.27;;;;;;;18.37;50.91;93904.75;5020835;28;20036;-88
2022/10/11 05:51:56;;;;;;;67.10;31.38;;;;;;;18.41;50.54;93907.22;5033779;28;20029;-89
2022/10/11 05:54:22;;;;;;;62.30;31.80;;;;;;;18.40;50.89;93917.44;5053734;28;20124;-89
2022/10/11 05:56:47;;;;;;;75.30;40.22;;;;;;;18.47;50.66;93925.16;5076169;28;20032;-89
2022/10/11 05:59:13;;;;;;;80.90;34.58;;;;;;;18.48;50.44;93912.19;5038199;28;20499;-89
2022/10/11 06:01:38;;;;;;;82.65;35.70;;;;;;;18.52;51.05;93929.13;5017611;28;20470;-87
2022/10/11 06:04:04;;;;;;;73.90;36.70;;;;;;;18.53;50.93;93925.16;5009624;28;20430;-89
2022/10/11 06:06:29;;;;;;;74.22;36.10;;;;;;;18.56;51.35;93924.16;5018575;28;20037;-89
2022/10/11 06:08:55;;;;;;;60.08;35.42;;;;;;;18.58;51.03;93940.09;5059274;28;20110;-87
2022/10/11 06:11:24;;;;;;;60.17;35.15;;;;;;;18.63;50.88;93926.41;5015980;28;20064;-88
2022/10/11 06:13:51;;;;;;;60.35;35.80;;;;;;;18.66;50.93;93935.59;5025382;28;20495;-86
2022/10/11 06:16:16;;;;;;;52.05;32.35;;;;;;;18.68;50.94;93931.13;5028641;28;20459;-85
2022/10/11 06:18:42;;;;;;;56.28;32.35;;;;;;;18.71;50.89;93934.88;5010024;28;20052;-89
2022/10/11 06:21:07;;;;;;;53.67;32.72;;;;;;;18.70;50.63;93934.13;5048961;28;20075;-88
2022/10/11 06:23:33;;;;;;;56.70;32.40;;;;;;;18.73;50.63;93926.91;5014034;28;20067;-88
2022/10/11 06:26:04;;;;;;;53.28;31.80;;;;;;;18.71;50.62;93932.88;5029584;28;20041;-88
2022/10/11 06:28:29;;;;;;;61.40;37.60;;;;;;;18.70;50.82;93923.16;5034234;28;20037;-88
2022/10/11 06:30:55;;;;;;;60.33;35.63;;;;;;;18.68;50.61;93933.13;5016308;28;20525;-89
2022/10/11 06:33:20;;;;;;;70.18;43.83;;;;;;;18.69;50.86;93931.88;5016691;28;20099;-88
2022/10/11 06:35:46;;;;;;;73.40;43.10;;;;;;;18.68;50.91;93935.84;5017410;28;20036;-88
2022/10/11 06:38:11;;;;;;;71.85;44.40;;;;;;;18.66;50.71;93944.56;5039566;28;20036;-89
2022/10/11 06:40:37;;;;;;;65.25;42.42;;;;;;;18.69;50.72;93949.06;5028208;28;20098;-90
2022/10/11 06:43:02;;;;;;;67.95;40.85;;;;;;;18.67;50.78;93953.53;5034889;28;20526;-89
2022/10/11 06:45:28;;;;;;;67.95;41.00;;;;;;;18.67;50.90;93951.53;5017386;28;20060;-90
2022/10/11 06:47:53;;;;;;;64.03;41.03;;;;;;;18.68;50.84;93947.56;5033892;28;20496;-89
2022/10/11 06:50:18;;;;;;;70.80;43.47;;;;;;;18.67;51.01;93951.53;5032037;28;20075;-90
2022/10/11 06:52:45;;;;;;;69.35;41.90;;;;;;;18.68;50.94;93955.78;5033956;28;20483;-89
2022/10/11 06:55:11;;;;;;;85.55;43.72;;;;;;;18.65;50.91;93951.28;5037815;28;20040;-86
2022/10/11 06:57:37;;;;;;;80.32;44.78;;;;;;;18.69;51.12;93957.25;5023450;28;20553;-89
2022/10/11 07:00:03;;;;;;;81.55;43.70;;;;;;;18.70;50.96;93958.75;5020237;28;20036;-89
2022/10/11 07:02:29;;;;;;;77.13;48.65;;;;;;;18.71;51.01;93963.00;5040325;28;20089;-89
2022/10/11 07:04:54;;;;;;;63.67;38.33;;;;;;;18.70;51.64;93963.50;5017815;28;20025;-90
2022/10/11 07:07:19;;;;;;;88.35;52.22;;;;;;;18.62;51.83;93962.53;5015683;28;20041;-91
2022/10/11 07:09:46;;;;;;;94.35;54.75;;;;;;;18.57;51.89;93958.50;5025674;28;20134;-90
2022/10/11 07:12:12;;;;;;;147.55;92.10;;;;;;;18.61;51.85;93963.75;5019866;28;20106;-90
2022/10/11 07:14:37;;;;;;;153.18;94.95;;;;;;;18.62;52.08;93968.00;5020791;28;20483;-90
2022/10/11 07:17:03;;;;;;;172.25;101.30;;;;;;;18.65;51.64;93975.19;5036769;28;20032;-91
2022/10/11 07:19:28;;;;;;;165.52;100.38;;;;;;;18.65;51.73;93981.41;5048753;28;20052;-93
2022/10/11 07:21:54;;;;;;;171.13;94.25;;;;;;;18.66;51.54;93969.22;5010085;28;20044;-91
2022/10/11 07:24:19;;;;;;;161.60;91.03;;;;;;;18.63;51.63;93978.44;5001498;28;20041;-89
2022/10/11 07:26:45;;;;;;;149.48;88.28;;;;;;;18.63;51.66;93978.44;5000069;28;20033;-91
2022/10/11 07:29:10;;;;;;;173.90;94.13;;;;;;;18.62;51.36;93985.16;5001527;28;20036;-92
2022/10/11 07:31:37;;;;;;;146.65;83.57;;;;;;;18.68;51.42;93985.91;5003802;28;20037;-91
2022/10/11 07:34:03;;;;;;;182.60;101.65;;;;;;;18.70;51.85;93985.41;4998897;28;20040;-91
2022/10/11 07:36:28;;;;;;;214.50;110.32;;;;;;;18.67;51.69;93978.94;4996257;28;20033;-91
2022/10/11 07:38:56;;;;;;;194.20;105.07;;;;;;;18.67;51.37;93989.88;5020505;28;20041;-92
2022/10/11 07:41:21;;;;;;;190.55;105.32;;;;;;;18.72;51.49;93991.13;5000765;28;20043;-90
2022/10/11 07:43:48;;;;;;;153.85;86.50;;;;;;;18.73;51.41;93989.88;5019182;28;20037;-91
2022/10/11 07:46:14;;;;;;;138.45;75.15;;;;;;;18.71;51.93;93998.59;5003078;28;20093;-87
2022/10/11 07:48:39;;;;;;;127.10;68.22;;;;;;;18.70;51.84;94001.84;5002891;28;20094;-88
2022/10/11 07:51:10;;;;;;;119.75;59.92;;;;;;;18.63;51.87;93992.13;5031725;28;20041;-88
2022/10/11 07:53:43;;;;;;;129.60;59.72;;;;;;;18.59;52.35;93994.38;4997815;28;20500;-89
2022/10/11 07:56:11;;;;;;;111.07;53.60;;;;;;;18.61;52.28;94002.84;5012157;28;20043;-90
2022/10/11 07:58:36;;;;;;;84.53;42.25;;;;;;;18.58;52.18;94001.06;5006017;28;20091;-89
2022/10/11 08:01:02;;;;;;;90.82;46.80;;;;;;;18.56;52.53;94011.03;5020081;28;20462;-89
2022/10/11 08:03:28;;;;;;;65.03;37.75;;;;;;;18.60;52.62;94015.03;5015761;28;20047;-89
2022/10/11 08:05:53;;;;;;;56.15;30.92;;;;;;;18.59;52.38;94015.50;5012729;28;20488;-89
2022/10/11 08:08:20;;;;;;;65.20;33.92;;;;;;;18.57;52.43;94016.00;4988926;28;20120;-88
2022/10/11 08:10:45;;;;;;;64.75;31.13;;;;;;;18.60;52.63;94022.50;4982684;28;20084;-88
2022/10/11 08:13:11;;;;;;;55.63;33.53;;;;;;;18.59;52.97;94032.72;4984371;28;20040;-88
2022/10/11 08:15:36;;;;;;;80.28;43.58;;;;;;;18.58;52.39;94025.72;5000495;28;20029;-90
2022/10/11 08:18:02;;;;;;;67.50;40.63;;;;;;;18.58;52.31;94016.75;5003163;28;20591;-90
2022/10/11 08:20:29;;;;;;;77.07;43.05;;;;;;;18.59;51.97;94016.28;5032622;28;20037;-90
2022/10/11 08:22:55;;;;;;;64.68;41.53;;;;;;;18.62;52.29;94022.75;5017417;28;20810;-89
2022/10/11 08:25:20;;;;;;;62.38;42.42;;;;;;;18.60;52.28;94022.50;5014794;28;20044;-90
2022/10/11 08:27:47;;;;;;;86.43;53.45;;;;;;;18.65;52.14;94022.50;5018085;28;20036;-90
2022/10/11 08:30:13;;;;;;;132.35;75.88;;;;;;;18.66;52.06;94018.50;5042659;28;20041;-91
2022/10/11 08:32:39;;;;;;;156.30;85.53;;;;;;;18.70;52.28;94024.50;5036576;28;20039;-90
2022/10/11 08:35:05;;;;;;;148.05;84.78;;;;;;;18.67;52.03;94022.00;5034903;28;20032;-90
2022/10/11 08:37:33;;;;;;;155.05;87.97;;;;;;;18.69;52.11;94019.50;5020967;28;20040;-92
2022/10/11 08:39:59;;;;;;;140.65;80.53;;;;;;;18.70;52.16;94021.00;5036638;28;20044;-91
2022/10/11 08:42:34;;;;;;;148.32;76.07;;;;;;;18.69;52.28;94030.47;5018856;28;20041;-92
2022/10/11 08:45:02;;;;;;;133.95;74.43;;;;;;;18.69;52.22;94028.47;5013775;28;20051;-91
2022/10/11 08:47:38;;;;;;;128.93;71.40;;;;;;;18.72;52.00;94030.22;4999948;28;20061;-92
2022/10/11 08:50:04;;;;;;;128.82;68.78;;;;;;;18.67;52.68;94032.94;5018383;28;20495;-90
2022/10/11 08:52:38;;;;;;;133.15;71.63;;;;;;;18.70;52.49;94024.50;5019762;28;20037;-90
2022/10/11 08:55:05;;;;;;;150.82;74.63;;;;;;;18.73;52.14;94034.44;5034717;28;20033;-87
2022/10/11 08:57:33;;;;;;;137.15;69.95;;;;;;;18.69;52.57;94030.47;5022975;28;20036;-91
2022/10/11 09:00:01;;;;;;;132.70;68.55;;;;;;;18.68;52.58;94039.91;5024008;28;20036;-93
2022/10/11 09:02:46;;;;;;;153.02;74.88;;;;;;;18.71;52.40;94034.19;5021899;28;20391;-92
2022/10/11 09:05:14;;;;;;;135.10;70.05;;;;;;;18.71;52.34;94041.66;5042156;28;20044;-94
2022/10/11 09:07:50;;;;;;;163.23;81.30;;;;;;;18.72;52.54;94051.38;5028809;28;20498;-92
2022/10/11 09:10:32;;;;;;;199.70;99.05;;;;;;;18.72;52.54;94040.44;5050569;28;20048;-92
2022/10/11 09:13:16;;;;;;;213.80;107.63;;;;;;;18.70;52.79;94046.41;5049838;28;20051;-94
2022/10/11 09:16:04;;;;;;;173.13;95.10;;;;;;;18.75;52.84;94051.13;5044037;28;20180;-92
2022/10/11 09:18:52;;;;;;;171.32;92.75;;;;;;;18.77;52.70;94050.66;5034935;28;20060;-92
2022/10/11 09:21:48;;;;;;;216.98;112.05;;;;;;;18.76;52.57;94046.41;5063937;28;20052;-91
2022/10/11 09:24:16;;;;;;;273.08;143.55;;;;;;;18.76;52.65;94049.16;5075004;28;20055;-92
2022/10/11 09:26:55;;;;;;;224.77;119.93;;;;;;;18.72;52.82;94049.38;5055915;28;20479;-88
2022/10/11 09:29:45;;;;;;;208.65;108.20;;;;;;;18.74;52.67;94041.44;5020226;28;20079;-90
2022/10/11 09:32:13;;;;;;;199.40;105.68;;;;;;;18.74;52.91;94046.16;5016298;28;20049;-90
2022/10/11 09:34:39;;;;;;;189.40;102.53;;;;;;;18.79;52.42;94045.41;5001237;28;20041;-90
2022/10/11 09:37:29;;;;;;;174.55;94.10;;;;;;;18.75;52.76;94042.91;5016965;28;20036;-91
2022/10/11 09:39:58;;;;;;;172.43;93.43;;;;;;;18.70;53.10;94051.88;5035919;28;20041;-91
2022/10/11 09:42:24;;;;;;;133.70;81.32;;;;;;;18.76;53.17;94049.16;5018644;28;20052;-91
2022/10/11 09:44:50;;;;;;;148.27;83.50;;;;;;;18.74;53.06;94052.38;5019162;28;20043;-92
2022/10/11 09:47:17;;;;;;;133.07;74.45;;;;;;;18.74;53.27;94043.41;5018594;28;20040;-92
2022/10/11 09:49:49;;;;;;;145.20;78.25;;;;;;;18.75;53.20;94047.66;5019598;28;20032;-91
2022/10/11 09:52:16;;;;;;;186.43;108.90;;;;;;;18.73;53.60;94044.66;5028171;28;20044;-89
2022/10/11 09:54:43;;;;;;;195.85;113.68;;;;;;;18.68;53.49;94056.34;5006036;28;20106;-88
2022/10/11 09:57:19;;;;;;;215.00;116.95;;;;;;;18.72;53.45;94046.66;5017710;28;20036;-89
2022/10/11 10:00:06;;;;;;;206.95;113.88;;;;;;;18.70;53.73;94053.88;5047034;28;20043;-90
2022/10/11 10:02:46;;;;;;;181.90;95.00;;;;;;;18.71;53.88;94047.16;5033913;28;20166;-89
2022/10/11 10:05:17;;;;;;;143.93;84.20;;;;;;;18.68;53.82;94048.88;5032621;28;20041;-90
2022/10/11 10:07:56;;;;;;;118.65;70.60;;;;;;;18.69;53.93;94046.91;5074154;28;20115;-92
2022/10/11 10:10:26;;;;;;;115.68;66.35;;;;;;;18.63;54.30;94049.63;5036530;28;20040;-93
2022/10/11 10:12:56;;;;;;;169.70;79.20;;;;;;;18.60;54.53;94047.16;5034445;28;20105;-91
2022/10/11 10:15:21;;;;;;;189.55;80.53;;;;;;;18.66;54.00;94054.09;5014193;28;20037;-91
2022/10/11 10:17:47;;;;;;;123.00;63.92;;;;;;;18.65;53.99;94044.41;5038468;28;20097;-91
2022/10/11 10:20:21;;;;;;;99.78;57.17;;;;;;;18.66;54.04;94048.63;5018062;28;21046;-91
2022/10/11 10:22:47;;;;;;;95.35;53.22;;;;;;;18.65;54.12;94049.13;5045198;28;20051;-90
2022/10/11 10:25:35;;;;;;;97.25;55.03;;;;;;;18.63;54.44;94052.34;5031892;28;20032;-86
2022/10/11 10:28:02;;;;;;;92.93;53.00;;;;;;;18.66;53.91;94051.38;5034234;28;20481;-86
2022/10/11 10:30:28;;;;;;;81.28;48.92;;;;;;;18.66;54.49;94048.63;5028385;28;20051;-86
2022/10/11 10:33:04;;;;;;;147.10;102.43;;;;;;;18.69;54.09;94052.38;5017822;28;20059;-87
2022/10/11 10:35:50;;;;;;;97.95;69.88;;;;;;;18.72;54.34;94046.66;5034698;28;20041;-87
2022/10/11 10:38:32;;;;;;;94.53;55.78;;;;;;;18.74;54.03;94048.91;5038471;28;20506;-90
2022/10/11 10:41:03;;;;;;;73.03;45.63;;;;;;;18.73;54.32;94042.66;5038561;28;20521;-89
2022/10/11 10:43:32;;;;;;;61.55;39.65;;;;;;;18.74;54.29;94044.16;5035553;28;20487;-89
2022/10/11 10:46:20;;;;;;;67.25;43.33;;;;;;;18.71;54.25;94039.69;5036291;28;20524;-88
2022/10/11 10:48:50;;;;;;;80.45;56.95;;;;;;;18.71;54.17;94042.41;5034679;28;20047;-89
2022/10/11 10:51:38;;;;;;;64.32;40.75;;;;;;;18.71;54.33;94050.63;5069902;28;20032;-89
2022/10/11 10:54:18;;;;;;;60.22;40.35;;;;;;;18.73;54.14;94042.66;5053732;28;20064;-88
2022/10/11 10:56:48;;;;;;;113.70;53.92;;;;;;;18.76;54.25;94041.69;5062704;28;20051;-89
2022/10/11 10:59:41;;;;;;;74.45;39.60;;;;;;;18.72;54.64;94051.38;5019616;28;20036;-88
2022/10/11 11:02:19;;;;;;;93.10;45.33;;;;;;;18.63;54.71;94044.16;5054594;28;20040;-90
2022/10/11 11:04:54;;;;;;;119.80;57.28;;;;;;;18.68;54.83;94046.16;5032124;28;20398;-90
2022/10/11 11:07:27;;;;;;;206.63;107.07;;;;;;;18.63;55.12;94046.88;5038996;28;20507;-90
2022/10/11 11:10:02;;;;;;;195.02;84.03;;;;;;;18.69;54.58;94053.13;5036048;28;20052;-88
2022/10/11 11:12:28;;;;;;;199.25;83.60;;;;;;;18.66;54.64;94045.16;5032767;28;20044;-89
2022/10/11 11:15:08;;;;;;;194.80;81.75;;;;;;;18.66;54.71;94048.63;5063624;28;20028;-88
2022/10/11 11:17:42;;;;;;;174.60;82.60;;;;;;;18.66;54.97;94047.88;5053752;28;20090;-87
2022/10/11 11:20:41;;;;;;;158.90;79.57;;;;;;;18.69;54.67;94044.16;5040469;28;20051;-88
2022/10/11 11:23:26;;;;;;;170.30;81.22;;;;;;;18.72;54.60;94045.91;5055527;28;20049;-86
2022/10/11 11:26:07;;;;;;;165.50;93.75;;;;;;;18.71;54.54;94041.66;5049129;28;20128;-89
2022/10/11 11:28:51;;;;;;;159.32;80.35;;;;;;;18.72;54.39;94046.66;5030397;28;20046;-90